UAC weather

San Luis Río Colorado Airport
San Luis Río Colorado, Sonora, Mexico

Public forecast

Using degrees Celsius for public forecast. Weather courtesy of forecast.io.

Closest aviation weather report (METAR) to San Luis Río Colorado Airport

Closest report is Yuma MCAS/Yuma International Airport, 16.0 nm (29.6 km) NE. Retrieved 2020/02/26 18:57 UTC (7 minutes ago):

KNYL 261857Z 02009KT 7SM CLR 19/M13 A3041 RMK AO2 SLP296 T01891128

Closest aviation forecast (TAF) to San Luis Río Colorado Airport

Forecast is more than 12 hours old.

Closest forecast is Yuma MCAS/Yuma International Airport, 16.0 nm (29.6 km) NE. Retrieved 2014/04/27 15:15 UTC (6 years ago):

TAF TAF COR KNYL 271500Z 2715/2815 VRB06KT 9999 FEW250 QNH2989INS BECMG 2716/2718 26007KT QNH2978INS BECMG 2806/2808 VRB05KT QNH2981INS AUTOMATED SENSOR METWATCH 2715 TIL 2815 TX22/2723Z TN10/2813Z COR 1545